Time;durP1;ratioP1;P1;durP2;ratioP2;P2;SDS_P1;SDS_P2;PMS_P1;PMS_P2;Temp;Humidity;BMP_temperature;BMP_pressure;BME280_temperature;BME280_humidity;BME280_pressure;Samples;Min_cycle;Max_cycle;Signal;HPM_P1;HPM_P2
2021/07/04 00:02:28;;;;;;;6.63;5.00;;;18.90;14.30;;;;;;5120491;27;20561;-70
2021/07/04 00:05:19;;;;;;;6.30;5.03;;;18.90;15.20;;;;;;5120079;27;20266;-71
2021/07/04 00:08:10;;;;;;;10.90;5.20;;;18.90;14.70;;;;;;5124746;27;20079;-70
2021/07/04 00:11:01;;;;;;;5.63;5.03;;;19.00;14.20;;;;;;5117221;27;20045;-70
2021/07/04 00:13:49;;;;;;;6.47;5.50;;;18.90;15.90;;;;;;5102797;27;20124;-70
2021/07/04 00:16:38;;;;;;;6.70;5.13;;;18.80;15.10;;;;;;5107360;27;20809;-70
2021/07/04 00:19:26;;;;;;;7.05;4.55;;;18.80;15.00;;;;;;5117524;27;20043;-70
2021/07/04 00:22:16;;;;;;;6.40;4.22;;;18.90;13.90;;;;;;5126156;27;20043;-70
2021/07/04 00:25:07;;;;;;;5.18;4.68;;;18.80;13.90;;;;;;5117195;27;20101;-70
2021/07/04 00:27:57;;;;;;;8.10;4.75;;;18.90;13.90;;;;;;5122222;27;20154;-70
2021/07/04 00:30:46;;;;;;;4.43;4.03;;;18.90;13.90;;;;;;5118629;27;20183;-70
2021/07/04 00:33:52;;;;;;;5.63;4.65;;;18.90;13.50;;;;;;5118453;27;20101;-71
2021/07/04 00:36:40;;;;;;;5.30;4.70;;;19.00;14.00;;;;;;5118710;27;20643;-71
2021/07/04 00:39:30;;;;;;;5.60;4.60;;;18.90;14.60;;;;;;5117694;27;20518;-70
2021/07/04 00:42:19;;;;;;;6.15;4.57;;;18.80;15.10;;;;;;5123272;27;20062;-69
2021/07/04 00:45:10;;;;;;;5.82;4.90;;;18.70;15.40;;;;;;5100351;27;20059;-70
2021/07/04 00:47:59;;;;;;;6.10;4.63;;;18.50;16.20;;;;;;5107056;27;20087;-70
2021/07/04 00:50:49;;;;;;;5.47;4.78;;;18.60;16.40;;;;;;5103261;27;20073;-70
2021/07/04 00:53:41;;;;;;;4.90;4.22;;;18.60;16.00;;;;;;5107188;27;20079;-69
2021/07/04 00:56:31;;;;;;;5.13;4.50;;;18.50;17.30;;;;;;5117271;27;20039;-69
2021/07/04 00:59:21;;;;;;;8.18;4.88;;;18.70;16.40;;;;;;5117498;27;20509;-69
2021/07/04 01:02:09;;;;;;;6.03;4.70;;;18.60;16.70;;;;;;5118836;27;20086;-69
2021/07/04 01:04:58;;;;;;;5.65;3.97;;;18.50;17.00;;;;;;5099845;27;20047;-69
2021/07/04 01:07:48;;;;;;;4.65;4.20;;;18.50;17.30;;;;;;5102814;27;20046;-69
2021/07/04 01:10:38;;;;;;;4.88;4.38;;;18.60;16.90;;;;;;5117001;27;20039;-70
2021/07/04 01:13:33;;;;;;;5.00;4.43;;;18.60;17.00;;;;;;5092612;27;20122;-70
2021/07/04 01:16:32;;;;;;;4.95;4.13;;;18.50;16.80;;;;;;5116464;27;20046;-69
2021/07/04 01:19:23;;;;;;;5.03;4.53;;;18.50;17.30;;;;;;5101479;27;20043;-70
2021/07/04 01:22:16;;;;;;;5.15;4.13;;;18.50;17.30;;;;;;5119243;27;20047;-69
2021/07/04 01:25:07;;;;;;;5.00;4.15;;;18.70;17.40;;;;;;5102146;27;20118;-69
2021/07/04 01:27:56;;;;;;;5.35;4.07;;;18.60;16.90;;;;;;5107322;27;20039;-69
2021/07/04 01:30:47;;;;;;;5.00;4.18;;;18.50;17.30;;;;;;5118691;27;20061;-68
2021/07/04 01:33:36;;;;;;;5.85;4.28;;;18.60;16.40;;;;;;5101713;27;20091;-69
2021/07/04 01:36:30;;;;;;;4.70;4.20;;;18.60;16.60;;;;;;5104717;28;20043;-71
2021/07/04 01:39:22;;;;;;;6.28;4.35;;;18.50;16.50;;;;;;5119270;28;20050;-69
2021/07/04 01:42:20;;;;;;;5.53;4.78;;;18.50;17.20;;;;;;5101790;28;20120;-70
2021/07/04 01:45:10;;;;;;;5.68;4.32;;;18.40;17.20;;;;;;5116838;27;20055;-70
2021/07/04 01:47:59;;;;;;;5.63;4.75;;;18.20;19.20;;;;;;5119648;27;20036;-70
2021/07/04 01:50:50;;;;;;;9.18;5.00;;;18.30;19.10;;;;;;5101338;28;20165;-69
2021/07/04 01:53:47;;;;;;;6.15;4.57;;;18.10;20.10;;;;;;5104047;28;20075;-69
2021/07/04 01:56:39;;;;;;;5.20;4.70;;;18.20;20.70;;;;;;5087325;28;20048;-69
2021/07/04 01:59:30;;;;;;;6.20;5.15;;;18.00;21.80;;;;;;5104423;28;20434;-68
2021/07/04 02:02:28;;;;;;;6.43;4.63;;;18.20;20.80;;;;;;5105458;28;20162;-70
2021/07/04 02:05:17;;;;;;;6.70;4.78;;;17.90;23.20;;;;;;5107032;28;20050;-69
2021/07/04 02:08:08;;;;;;;5.28;4.60;;;17.80;23.90;;;;;;5106724;27;20059;-68
2021/07/04 02:10:59;;;;;;;5.57;4.57;;;18.10;21.70;;;;;;5102525;28;20249;-66
2021/07/04 02:13:47;;;;;;;7.10;4.63;;;18.10;20.90;;;;;;5102662;28;20113;-66
2021/07/04 02:16:46;;;;;;;5.47;4.90;;;18.20;21.60;;;;;;5087811;28;20043;-67
2021/07/04 02:19:57;;;;;;;5.60;4.65;;;18.20;19.50;;;;;;5103295;28;20039;-67
2021/07/04 02:22:52;;;;;;;;;;;18.10;20.60;;;;;;5101535;28;20043;-68
2021/07/04 02:25:55;;;;;;;5.82;4.95;;;18.30;19.30;;;;;;5101502;27;20060;-68
2021/07/04 02:28:44;;;;;;;7.07;4.70;;;18.10;20.60;;;;;;5103250;28;20039;-68
2021/07/04 02:31:39;;;;;;;5.80;5.15;;;18.10;20.90;;;;;;5108762;27;20059;-67
2021/07/04 02:34:34;;;;;;;6.15;4.70;;;17.80;23.10;;;;;;5105167;27;20046;-68
2021/07/04 02:37:24;;;;;;;6.43;4.75;;;17.60;23.80;;;;;;5107223;27;20039;-67
2021/07/04 02:40:23;;;;;;;7.63;5.40;;;17.70;25.30;;;;;;5104400;27;20188;-67
2021/07/04 02:43:18;;;;;;;5.10;4.60;;;17.50;24.80;;;;;;5107609;27;20053;-67
2021/07/04 02:46:07;;;;;;;5.78;5.00;;;17.30;26.60;;;;;;5104642;27;20702;-69
2021/07/04 02:48:55;;;;;;;6.32;5.00;;;17.90;23.50;;;;;;5109836;27;20535;-68
2021/07/04 02:51:45;;;;;;;5.68;4.95;;;18.00;20.50;;;;;;5125384;27;20062;-68
2021/07/04 02:54:35;;;;;;;5.80;5.03;;;17.60;23.80;;;;;;5107958;27;20039;-68
2021/07/04 02:57:36;;;;;;;6.20;5.25;;;17.60;25.70;;;;;;5108118;27;20128;-67
2021/07/04 03:00:31;;;;;;;7.50;5.05;;;17.70;23.80;;;;;;5106706;27;20656;-67
2021/07/04 03:03:20;;;;;;;5.88;5.03;;;17.80;23.90;;;;;;5109131;27;20050;-67
2021/07/04 03:06:10;;;;;;;6.60;4.80;;;17.80;22.50;;;;;;5099334;27;20517;-67
2021/07/04 03:09:01;;;;;;;5.53;4.63;;;18.30;18.30;;;;;;5104889;27;20100;-67
2021/07/04 03:11:51;;;;;;;6.65;5.05;;;17.60;23.50;;;;;;5108484;27;20043;-68
2021/07/04 03:14:40;;;;;;;7.82;4.93;;;17.30;27.10;;;;;;5105171;27;20058;-66
2021/07/04 03:17:29;;;;;;;6.55;5.47;;;17.50;26.50;;;;;;5096944;27;20118;-68
2021/07/04 03:20:17;;;;;;;5.30;4.80;;;17.50;25.50;;;;;;5111001;27;20094;-68
2021/07/04 03:23:12;;;;;;;6.75;4.82;;;17.60;24.70;;;;;;5099671;27;20043;-68
2021/07/04 03:26:02;;;;;;;6.63;4.90;;;17.40;24.90;;;;;;5117909;27;20039;-67
2021/07/04 03:28:53;;;;;;;6.85;5.00;;;17.30;27.10;;;;;;5107927;27;20043;-67
2021/07/04 03:31:51;;;;;;;6.30;5.22;;;17.80;23.20;;;;;;5114379;27;20048;-68
2021/07/04 03:34:40;;;;;;;6.50;5.35;;;17.90;21.20;;;;;;5114406;27;20071;-68
2021/07/04 03:37:29;;;;;;;6.85;5.03;;;17.80;22.70;;;;;;5115122;27;20051;-68
2021/07/04 03:40:19;;;;;;;6.28;4.47;;;17.90;21.70;;;;;;5097182;27;20051;-68
2021/07/04 03:43:16;;;;;;;7.15;4.68;;;17.40;26.20;;;;;;5122229;27;20517;-68
2021/07/04 03:46:05;;;;;;;5.28;4.68;;;17.20;27.40;;;;;;5099695;27;20134;-68
2021/07/04 03:49:00;;;;;;;5.72;4.88;;;17.60;25.10;;;;;;5098352;27;20524;-68
2021/07/04 03:51:56;;;;;;;5.95;5.07;;;17.60;25.40;;;;;;5103072;27;20040;-66
2021/07/04 03:54:46;;;;;;;5.93;5.15;;;17.50;25.10;;;;;;5113467;27;20036;-67
2021/07/04 03:57:46;;;;;;;6.53;5.18;;;17.90;23.90;;;;;;5124262;27;20047;-68
2021/07/04 04:00:51;;;;;;;6.57;5.07;;;17.80;24.00;;;;;;5104564;27;20043;-66
2021/07/04 04:03:50;;;;;;;6.28;5.18;;;17.90;26.20;;;;;;5108739;27;20423;-65
2021/07/04 04:06:40;;;;;;;7.57;5.03;;;17.70;26.60;;;;;;5120936;27;20043;-67
2021/07/04 04:09:37;;;;;;;6.93;5.25;;;18.10;23.60;;;;;;5105357;27;20080;-67
2021/07/04 04:12:29;;;;;;;8.32;5.50;;;17.90;24.80;;;;;;5109675;27;20391;-66
2021/07/04 04:15:18;;;;;;;7.82;5.63;;;18.00;24.50;;;;;;5099961;27;20407;-68
2021/07/04 04:18:11;;;;;;;6.88;5.50;;;18.00;25.90;;;;;;5123811;27;20050;-68
2021/07/04 04:21:01;;;;;;;8.75;5.65;;;18.10;24.50;;;;;;5103272;27;20043;-68
2021/07/04 04:23:50;;;;;;;6.07;5.10;;;18.40;23.50;;;;;;5104628;27;20407;-68
2021/07/04 04:26:43;;;;;;;6.10;5.50;;;18.50;23.00;;;;;;5101686;27;20251;-67
2021/07/04 04:29:33;;;;;;;8.85;5.57;;;18.20;24.00;;;;;;5100769;27;20042;-68
2021/07/04 04:32:22;;;;;;;6.50;4.82;;;18.30;23.50;;;;;;5106941;27;20061;-67
2021/07/04 04:35:13;;;;;;;6.57;5.20;;;18.20;24.30;;;;;;5103456;27;20079;-67
2021/07/04 04:38:02;;;;;;;6.03;5.13;;;18.50;22.60;;;;;;5096110;27;20042;-68
2021/07/04 04:40:50;;;;;;;6.72;5.55;;;18.30;23.40;;;;;;5117091;27;20478;-67
2021/07/04 04:43:40;;;;;;;6.57;5.45;;;18.30;24.80;;;;;;5121457;27;20109;-67
2021/07/04 04:46:29;;;;;;;7.22;5.50;;;18.60;21.40;;;;;;5119056;27;20051;-68
2021/07/04 04:49:17;;;;;;;6.68;4.95;;;18.60;21.40;;;;;;5118659;27;20043;-68
2021/07/04 04:52:07;;;;;;;6.97;5.47;;;18.90;19.30;;;;;;5125945;27;20055;-67
2021/07/04 04:54:55;;;;;;;7.78;5.53;;;18.70;20.50;;;;;;5114462;27;20077;-67
2021/07/04 04:57:44;;;;;;;7.53;5.35;;;18.60;20.90;;;;;;5105087;27;20047;-68
2021/07/04 05:00:33;;;;;;;10.35;5.43;;;18.40;22.80;;;;;;5121188;27;20035;-68
2021/07/04 05:03:21;;;;;;;9.38;5.88;;;18.50;22.90;;;;;;5105035;27;20413;-67
2021/07/04 05:06:10;;;;;;;6.20;5.10;;;18.40;25.00;;;;;;5115772;27;20047;-66
2021/07/04 05:09:01;;;;;;;6.00;5.40;;;18.50;24.40;;;;;;5106537;27;20411;-67
2021/07/04 05:11:50;;;;;;;7.95;5.45;;;18.60;23.90;;;;;;5122980;27;20047;-68
2021/07/04 05:14:39;;;;;;;6.30;4.90;;;18.60;23.80;;;;;;5116960;27;20067;-66
2021/07/04 05:17:27;;;;;;;6.47;5.22;;;18.70;23.00;;;;;;5123257;27;20135;-66
2021/07/04 05:20:16;;;;;;;6.03;5.40;;;18.80;21.80;;;;;;5117099;27;20043;-66
2021/07/04 05:23:05;;;;;;;7.10;5.53;;;19.00;22.20;;;;;;5122523;27;20066;-67
2021/07/04 05:25:56;;;;;;;7.38;5.38;;;19.00;20.10;;;;;;5115249;28;20051;-67
2021/07/04 05:28:45;;;;;;;5.75;5.15;;;18.90;21.90;;;;;;5124505;27;20119;-67
2021/07/04 05:31:33;;;;;;;6.10;5.10;;;19.00;21.20;;;;;;5122306;27;20039;-68
2021/07/04 05:34:22;;;;;;;7.13;5.85;;;18.90;22.50;;;;;;5118417;28;20399;-68
2021/07/04 05:37:10;;;;;;;8.05;5.00;;;18.90;22.50;;;;;;5119479;27;20525;-68
2021/07/04 05:40:01;;;;;;;9.40;5.80;;;19.10;21.30;;;;;;5115455;27;20513;-68
2021/07/04 05:42:53;;;;;;;7.93;5.15;;;19.10;20.70;;;;;;5122592;28;20796;-67
2021/07/04 05:45:42;;;;;;;6.38;4.97;;;19.30;19.10;;;;;;5115458;28;20203;-68
2021/07/04 05:48:30;;;;;;;7.07;5.53;;;19.50;19.10;;;;;;5119071;27;20043;-67
2021/07/04 05:51:19;;;;;;;7.55;5.05;;;19.50;19.00;;;;;;5117318;27;20387;-67
2021/07/04 05:54:08;;;;;;;7.75;5.00;;;19.80;15.70;;;;;;5118524;27;20051;-67
2021/07/04 05:56:56;;;;;;;6.60;5.00;;;19.70;16.40;;;;;;5119436;28;20047;-67
2021/07/04 05:59:49;;;;;;;5.95;5.30;;;20.10;14.70;;;;;;5118975;28;20051;-67
2021/07/04 06:02:37;;;;;;;6.25;5.28;;;19.80;13.90;;;;;;5118549;28;20051;-68
2021/07/04 06:05:27;;;;;;;6.25;5.20;;;20.00;12.90;;;;;;5114559;27;20058;-67
2021/07/04 06:08:15;;;;;;;5.95;4.90;;;20.30;13.50;;;;;;5122812;27;20099;-67
2021/07/04 06:11:04;;;;;;;10.60;5.00;;;20.80;10.00;;;;;;5123431;27;20039;-67
2021/07/04 06:13:52;;;;;;;6.47;4.80;;;21.10;8.00;;;;;;5120768;27;20047;-67
2021/07/04 06:16:42;;;;;;;5.75;4.68;;;20.80;7.70;;;;;;5120109;27;20054;-67
2021/07/04 06:19:30;;;;;;;6.57;4.13;;;20.60;9.90;;;;;;5121212;27;20110;-68
2021/07/04 06:22:23;;;;;;;7.00;5.03;;;20.90;8.20;;;;;;5127445;27;20050;-67
2021/07/04 06:25:14;;;;;;;6.22;4.90;;;20.80;8.00;;;;;;5119530;27;20144;-66
2021/07/04 06:28:03;;;;;;;6.47;4.55;;;20.70;7.60;;;;;;5125144;27;20051;-67
2021/07/04 06:30:52;;;;;;;10.05;5.00;;;20.60;7.80;;;;;;5119860;27;20047;-68
2021/07/04 06:33:41;;;;;;;5.63;4.82;;;20.80;8.10;;;;;;5124786;27;20421;-68
2021/07/04 06:36:30;;;;;;;6.05;5.07;;;20.80;6.40;;;;;;5116919;27;20042;-68
2021/07/04 06:39:19;;;;;;;5.60;4.75;;;21.10;6.10;;;;;;5124965;27;20136;-66
2021/07/04 06:42:09;;;;;;;6.93;4.93;;;21.50;4.00;;;;;;5122712;27;20051;-67
2021/07/04 06:44:57;;;;;;;5.28;4.78;;;22.40;1.00;;;;;;5117796;27;20718;-67
2021/07/04 06:47:48;;;;;;;5.63;4.57;;;22.50;1.00;;;;;;5121515;27;20074;-67
2021/07/04 06:50:39;;;;;;;5.18;4.53;;;22.00;1.00;;;;;;5122202;27;20047;-66
2021/07/04 06:53:27;;;;;;;6.35;5.43;;;21.40;3.60;;;;;;5121038;27;20144;-67
2021/07/04 06:56:16;;;;;;;6.50;4.90;;;21.40;2.90;;;;;;5116606;27;20044;-67
2021/07/04 06:59:05;;;;;;;8.10;4.57;;;21.70;1.60;;;;;;5118443;27;20061;-67
2021/07/04 07:01:54;;;;;;;9.20;4.45;;;21.50;1.70;;;;;;5124903;27;20047;-68
2021/07/04 07:04:42;;;;;;;5.88;4.15;;;21.30;1.60;;;;;;5104823;27;20116;-67
2021/07/04 07:07:32;;;;;;;5.35;4.10;;;21.10;1.70;;;;;;5125490;27;20055;-68
2021/07/04 07:10:21;;;;;;;5.03;4.28;;;21.30;1.70;;;;;;5119469;27;20047;-67
2021/07/04 07:13:09;;;;;;;6.40;4.13;;;21.30;1.00;;;;;;5126574;27;20406;-67
2021/07/04 07:16:01;;;;;;;4.43;3.97;;;21.10;1.00;;;;;;5118846;27;20035;-67
2021/07/04 07:18:55;;;;;;;4.72;4.05;;;21.30;1.00;;;;;;5121885;27;20093;-67
2021/07/04 07:21:48;;;;;;;5.38;4.40;;;21.60;1.00;;;;;;5104458;27;20038;-67
2021/07/04 07:24:38;;;;;;;8.68;4.60;;;21.80;1.00;;;;;;5121979;27;20046;-69
2021/07/04 07:27:27;;;;;;;5.60;4.15;;;22.00;1.00;;;;;;5122295;27;20052;-66
2021/07/04 07:30:22;;;;;;;6.70;4.25;;;22.60;1.00;;;;;;5104033;27;20047;-69
2021/07/04 07:33:10;;;;;;;4.72;4.22;;;23.00;1.00;;;;;;5123150;27;20039;-68
2021/07/04 07:35:58;;;;;;;4.90;4.35;;;22.50;1.00;;;;;;5103315;27;20047;-68
2021/07/04 07:38:47;;;;;;;4.93;4.28;;;22.20;1.00;;;;;;5125404;27;20053;-68
2021/07/04 07:41:37;;;;;;;5.13;4.40;;;22.50;1.00;;;;;;5122685;27;20048;-68
2021/07/04 07:44:25;;;;;;;6.55;4.53;;;21.90;1.00;;;;;;5121295;27;20058;-67
2021/07/04 07:47:23;;;;;;;6.63;4.22;;;22.80;1.00;;;;;;5104920;27;20047;-67
2021/07/04 07:50:13;;;;;;;7.55;4.40;;;23.50;1.00;;;;;;5124190;27;20050;-67
2021/07/04 07:53:02;;;;;;;5.43;4.68;;;23.20;1.00;;;;;;5125347;27;20039;-67
2021/07/04 07:55:50;;;;;;;6.15;4.47;;;23.50;1.00;;;;;;5116041;27;20055;-68
2021/07/04 07:58:44;;;;;;;5.05;4.47;;;23.10;1.00;;;;;;5107377;27;20047;-67
2021/07/04 08:01:33;;;;;;;5.63;4.78;;;22.70;1.00;;;;;;5122057;27;20044;-68
2021/07/04 08:04:28;;;;;;;6.50;4.80;;;23.20;1.00;;;;;;5103816;27;20441;-67
2021/07/04 08:07:17;;;;;;;5.07;4.40;;;23.20;1.00;;;;;;5120233;27;20043;-67
2021/07/04 08:10:06;;;;;;;11.23;4.82;;;23.40;1.00;;;;;;5122204;27;20063;-67
2021/07/04 08:12:55;;;;;;;6.32;4.78;;;23.70;1.00;;;;;;5107782;27;20043;-68
2021/07/04 08:15:49;;;;;;;5.15;4.50;;;23.70;1.00;;;;;;5113283;27;20063;-68
2021/07/04 08:18:38;;;;;;;5.25;4.75;;;23.60;1.00;;;;;;5123533;27;20087;-67
2021/07/04 08:21:28;;;;;;;7.38;4.80;;;23.10;1.00;;;;;;5121750;27;20279;-68
2021/07/04 08:24:17;;;;;;;6.18;4.60;;;23.20;1.00;;;;;;5120063;27;20046;-68
2021/07/04 08:27:06;;;;;;;6.25;4.75;;;23.80;1.00;;;;;;5115607;27;20062;-68
2021/07/04 08:29:54;;;;;;;6.90;4.18;;;24.20;1.00;;;;;;5116204;27;20059;-68
2021/07/04 08:32:45;;;;;;;4.93;4.43;;;23.80;1.00;;;;;;5122177;27;20438;-69
2021/07/04 08:35:35;;;;;;;5.45;4.57;;;23.50;1.00;;;;;;5113552;27;20050;-68
2021/07/04 08:38:24;;;;;;;6.90;4.72;;;23.50;1.00;;;;;;5120831;27;20050;-67
2021/07/04 08:41:13;;;;;;;10.13;4.47;;;22.90;1.00;;;;;;5120568;27;20047;-67
2021/07/04 08:44:05;;;;;;;5.50;4.30;;;22.70;1.00;;;;;;5119806;27;20205;-68
2021/07/04 08:46:53;;;;;;;4.82;4.32;;;23.30;1.00;;;;;;5102516;27;20051;-68
2021/07/04 08:49:43;;;;;;;6.03;5.00;;;23.90;1.00;;;;;;5120353;27;20430;-67
2021/07/04 08:52:33;;;;;;;5.97;4.10;;;24.30;1.00;;;;;;5124170;27;20506;-67
2021/07/04 08:55:22;;;;;;;6.47;4.72;;;24.60;1.00;;;;;;5111300;27;20054;-68
2021/07/04 08:58:10;;;;;;;4.18;3.78;;;24.90;1.00;;;;;;5121863;27;20505;-68
2021/07/04 09:01:13;;;;;;;4.32;3.92;;;25.40;1.00;;;;;;5118889;27;20487;-68
2021/07/04 09:04:10;;;;;;;5.00;4.15;;;24.80;1.00;;;;;;5119499;27;20039;-68
2021/07/04 09:07:00;;;;;;;4.00;3.63;;;24.40;1.00;;;;;;5119369;27;20400;-68
2021/07/04 09:09:56;;;;;;;3.63;3.28;;;24.20;1.00;;;;;;5120934;27;20047;-68
2021/07/04 09:12:46;;;;;;;4.63;3.70;;;24.70;1.00;;;;;;5121450;27;20088;-68
2021/07/04 09:15:34;;;;;;;4.60;3.72;;;24.90;1.00;;;;;;5097644;27;20063;-68
2021/07/04 09:18:23;;;;;;;8.35;3.92;;;24.10;1.00;;;;;;5122716;27;20047;-68
2021/07/04 09:21:22;;;;;;;5.03;3.55;;;24.90;1.00;;;;;;5119920;27;20057;-68
2021/07/04 09:24:24;;;;;;;4.97;3.40;;;24.70;1.00;;;;;;5122070;27;20044;-67
2021/07/04 09:27:15;;;;;;;5.75;3.20;;;24.30;1.00;;;;;;5112940;27;20051;-67
2021/07/04 09:30:06;;;;;;;5.30;3.53;;;24.90;1.00;;;;;;5111462;27;20552;-68
2021/07/04 09:33:11;;;;;;;6.15;3.83;;;24.70;1.00;;;;;;5109258;28;20114;-66
2021/07/04 09:36:02;;;;;;;4.80;3.50;;;24.60;1.00;;;;;;5092334;27;20054;-68
2021/07/04 09:38:50;;;;;;;4.13;3.65;;;24.60;1.00;;;;;;5122021;27;20498;-68
2021/07/04 09:41:40;;;;;;;3.83;3.38;;;24.80;1.00;;;;;;5118354;28;20410;-68
2021/07/04 09:44:28;;;;;;;3.97;3.58;;;24.70;1.00;;;;;;5118932;28;20122;-68
2021/07/04 09:47:20;;;;;;;6.13;3.92;;;24.80;1.00;;;;;;5098652;27;20055;-68
2021/07/04 09:50:09;;;;;;;4.55;3.40;;;24.70;1.00;;;;;;5116757;28;20050;-67
2021/07/04 09:53:00;;;;;;;3.33;3.00;;;24.40;1.00;;;;;;5120879;28;20439;-68
2021/07/04 09:55:52;;;;;;;3.80;3.28;;;24.30;1.00;;;;;;5112038;27;20089;-68
2021/07/04 09:58:44;;;;;;;4.35;3.70;;;24.20;1.00;;;;;;5117128;28;20043;-67
2021/07/04 10:01:34;;;;;;;4.28;3.88;;;24.20;1.00;;;;;;5119703;28;20090;-67
2021/07/04 10:04:27;;;;;;;4.47;3.47;;;23.70;1.00;;;;;;5120250;28;20375;-68
2021/07/04 10:07:17;;;;;;;6.85;4.03;;;23.20;1.00;;;;;;5101078;28;20506;-68
2021/07/04 10:10:06;;;;;;;4.15;3.70;;;23.10;1.00;;;;;;5115408;27;20062;-67
2021/07/04 10:12:55;;;;;;;4.43;3.35;;;22.90;1.00;;;;;;5115733;27;20437;-69
2021/07/04 10:15:45;;;;;;;4.88;3.40;;;22.70;1.00;;;;;;5110660;28;20145;-67
2021/07/04 10:18:34;;;;;;;3.90;3.50;;;23.40;1.00;;;;;;5119116;28;20435;-67
2021/07/04 10:21:24;;;;;;;3.80;2.83;;;23.90;1.00;;;;;;5115688;27;20214;-68
2021/07/04 10:24:13;;;;;;;3.80;3.42;;;24.10;1.00;;;;;;5115462;27;20419;-68
2021/07/04 10:27:05;;;;;;;4.75;3.53;;;24.00;1.00;;;;;;5085281;27;20047;-68
2021/07/04 10:29:56;;;;;;;4.22;3.00;;;23.90;1.00;;;;;;5096676;28;20096;-68
2021/07/04 10:35:49;;;;;;;4.72;3.90;;;23.90;1.00;;;;;;5151041;27;20112;-69
2021/07/04 10:38:43;;;;;;;3.92;3.25;;;24.00;1.00;;;;;;5119164;27;20055;-68
2021/07/04 10:41:38;;;;;;;5.72;3.63;;;24.00;1.00;;;;;;5119852;27;20077;-68
2021/07/04 10:44:38;;;;;;;3.55;3.17;;;24.00;1.00;;;;;;5111698;27;20212;-68
2021/07/04 10:47:35;;;;;;;3.55;3.25;;;23.90;1.00;;;;;;5117701;27;20043;-68
2021/07/04 10:50:24;;;;;;;4.35;3.28;;;23.80;1.00;;;;;;5117669;27;20517;-68
2021/07/04 10:53:45;;;;;;;3.70;3.22;;;23.90;1.00;;;;;;5124707;27;20169;-68
2021/07/04 10:56:41;;;;;;;4.70;3.30;;;23.60;1.00;;;;;;5091183;27;20036;-66
2021/07/04 10:59:30;;;;;;;3.10;2.80;;;24.00;1.00;;;;;;5099003;27;20402;-68
2021/07/04 11:02:48;;;;;;;3.60;3.30;;;23.90;1.00;;;;;;5092848;27;20065;-67
2021/07/04 11:05:51;;;;;;;7.30;4.30;;;23.80;1.00;;;;;;5086017;27;20043;-68
2021/07/04 11:08:53;;;;;;;3.78;3.38;;;24.20;1.00;;;;;;5104378;27;20056;-68
2021/07/04 11:11:42;;;;;;;5.80;3.38;;;24.50;1.00;;;;;;5087851;27;20113;-68
2021/07/04 11:14:31;;;;;;;3.67;3.15;;;24.60;1.00;;;;;;5102913;27;20556;-68
2021/07/04 11:17:20;;;;;;;3.72;3.22;;;24.30;1.00;;;;;;5121003;27;20517;-68
2021/07/04 11:20:11;;;;;;;4.22;3.45;;;24.40;1.00;;;;;;5102344;27;20710;-68
2021/07/04 11:23:02;;;;;;;3.53;3.22;;;23.80;1.00;;;;;;5104299;27;20127;-68
2021/07/04 11:25:55;;;;;;;4.35;3.05;;;24.10;1.00;;;;;;5114486;27;20453;-67
2021/07/04 11:28:46;;;;;;;3.80;2.97;;;23.90;1.00;;;;;;5117876;27;20039;-68
2021/07/04 11:31:34;;;;;;;3.83;3.40;;;24.10;1.00;;;;;;5116806;27;20043;-68
2021/07/04 11:34:24;;;;;;;3.88;3.47;;;24.00;1.00;;;;;;5116407;27;20057;-67
2021/07/04 11:37:13;;;;;;;5.95;4.00;;;24.20;1.00;;;;;;5104802;27;20048;-68
2021/07/04 11:40:01;;;;;;;5.22;3.83;;;24.20;1.00;;;;;;5118522;27;20043;-67
2021/07/04 11:42:51;;;;;;;5.18;3.88;;;23.50;1.00;;;;;;5118203;27;20516;-69
2021/07/04 11:45:40;;;;;;;4.70;4.25;;;23.80;1.00;;;;;;5105130;27;20044;-67
2021/07/04 11:48:47;;;;;;;4.88;3.85;;;23.00;1.00;;;;;;5089866;27;20044;-67
2021/07/04 11:51:53;;;;;;;4.90;4.40;;;22.30;1.00;;;;;;5104934;27;20047;-68
2021/07/04 11:54:42;;;;;;;5.35;4.45;;;22.60;1.00;;;;;;5104730;27;20077;-68
2021/07/04 11:57:31;;;;;;;5.80;4.90;;;22.60;1.00;;;;;;5103565;27;20230;-68
2021/07/04 12:00:20;;;;;;;4.97;4.18;;;22.40;1.00;;;;;;5102246;27;20043;-67
2021/07/04 12:03:09;;;;;;;4.93;4.30;;;22.40;1.00;;;;;;5104358;27;20510;-68
2021/07/04 12:06:07;;;;;;;7.20;5.03;;;22.00;1.00;;;;;;5102872;27;20513;-68
2021/07/04 12:09:00;;;;;;;4.82;4.35;;;22.00;1.00;;;;;;5105920;27;20043;-68
2021/07/04 12:11:52;;;;;;;6.45;4.60;;;22.20;1.00;;;;;;5089672;27;20044;-69
2021/07/04 12:14:41;;;;;;;4.95;4.45;;;22.60;1.00;;;;;;5096154;27;20091;-69
2021/07/04 12:17:34;;;;;;;4.82;4.32;;;22.50;1.00;;;;;;5091315;27;20058;-67
2021/07/04 12:20:24;;;;;;;6.88;4.90;;;22.00;1.00;;;;;;5107943;27;20520;-68
2021/07/04 12:23:13;;;;;;;5.38;4.78;;;21.40;2.30;;;;;;5097400;27;20048;-68
2021/07/04 12:26:07;;;;;;;6.78;5.50;;;21.30;6.90;;;;;;5101708;27;20070;-69
2021/07/04 12:29:03;;;;;;;7.00;5.32;;;21.60;7.80;;;;;;5103300;27;20047;-68
2021/07/04 12:32:02;;;;;;;5.85;5.10;;;21.80;7.90;;;;;;5106030;27;20044;-69
2021/07/04 12:34:52;;;;;;;6.18;5.40;;;21.20;10.40;;;;;;5105038;27;20056;-68
2021/07/04 12:37:41;;;;;;;7.10;5.32;;;21.50;8.20;;;;;;5087754;27;20048;-67
2021/07/04 12:40:33;;;;;;;7.00;4.72;;;21.70;5.90;;;;;;5090414;27;20093;-67
2021/07/04 12:43:25;;;;;;;5.97;5.38;;;21.70;7.70;;;;;;5108447;27;20220;-68
2021/07/04 12:46:16;;;;;;;7.05;5.03;;;22.40;6.20;;;;;;5100361;27;20458;-67
2021/07/04 12:49:05;;;;;;;6.95;4.78;;;22.10;3.50;;;;;;5105487;27;20705;-67
2021/07/04 12:51:54;;;;;;;5.47;4.80;;;22.00;4.70;;;;;;5090008;28;20051;-67
2021/07/04 12:54:43;;;;;;;6.22;5.03;;;22.30;5.00;;;;;;5103843;27;20063;-69
2021/07/04 12:57:37;;;;;;;5.68;4.63;;;22.60;2.60;;;;;;5103853;27;20046;-68
2021/07/04 13:00:33;;;;;;;6.30;5.18;;;22.10;3.90;;;;;;5102441;27;20048;-66
2021/07/04 13:03:43;;;;;;;7.72;4.55;;;22.70;4.30;;;;;;5102402;27;20047;-67
2021/07/04 13:06:43;;;;;;;5.50;4.90;;;22.80;4.50;;;;;;5103381;27;20050;-67
2021/07/04 13:09:44;;;;;;;6.45;4.85;;;22.90;3.00;;;;;;5104693;27;20044;-67
2021/07/04 13:12:38;;;;;;;6.05;4.97;;;22.60;5.10;;;;;;5106752;27;20115;-67
2021/07/04 13:15:26;;;;;;;5.32;4.80;;;22.90;4.90;;;;;;5101792;27;20096;-67
2021/07/04 13:18:26;;;;;;;5.25;4.60;;;23.40;4.90;;;;;;5102161;27;20071;-67
2021/07/04 13:21:28;;;;;;;6.05;5.25;;;22.70;5.20;;;;;;5092492;27;20155;-67
2021/07/04 13:24:19;;;;;;;6.93;5.05;;;22.40;7.40;;;;;;5105311;27;20039;-68
2021/07/04 13:27:18;;;;;;;6.40;4.72;;;22.80;5.20;;;;;;5107548;27;20043;-67
2021/07/04 13:30:09;;;;;;;7.13;5.70;;;22.70;5.20;;;;;;5105051;27;20118;-68
2021/07/04 13:33:02;;;;;;;5.78;4.82;;;22.60;5.50;;;;;;5102953;27;20051;-68
2021/07/04 13:35:50;;;;;;;6.90;4.63;;;22.20;7.00;;;;;;5100743;27;20058;-67
2021/07/04 13:38:39;;;;;;;5.32;4.82;;;22.60;5.30;;;;;;5106561;27;20059;-67
2021/07/04 13:41:27;;;;;;;5.13;4.43;;;22.40;3.10;;;;;;5105766;27;20063;-67
2021/07/04 13:44:17;;;;;;;5.85;4.22;;;22.50;1.10;;;;;;5097757;27;20102;-68
2021/07/04 13:47:07;;;;;;;4.38;3.90;;;22.40;1.00;;;;;;5100230;27;20685;-67
2021/07/04 13:49:56;;;;;;;4.65;4.07;;;22.40;2.40;;;;;;5095287;27;20054;-68
2021/07/04 13:52:44;;;;;;;6.20;4.07;;;22.40;3.00;;;;;;5103927;27;20051;-67
2021/07/04 13:55:33;;;;;;;6.13;4.32;;;22.90;1.00;;;;;;5102763;27;20084;-66
2021/07/04 13:58:23;;;;;;;4.57;3.70;;;22.50;1.00;;;;;;5098722;27;20505;-67
2021/07/04 14:01:14;;;;;;;3.95;3.10;;;22.80;1.00;;;;;;5107657;27;20125;-67
2021/07/04 14:04:03;;;;;;;3.75;3.03;;;22.50;1.00;;;;;;5104521;27;20047;-68
2021/07/04 14:06:52;;;;;;;7.90;3.20;;;22.90;1.00;;;;;;5101910;27;20046;-68
2021/07/04 14:09:40;;;;;;;3.28;2.97;;;22.40;1.00;;;;;;5105319;27;20051;-67
2021/07/04 14:12:29;;;;;;;3.90;2.95;;;22.40;1.00;;;;;;5101537;27;20391;-67
2021/07/04 14:15:18;;;;;;;2.85;2.65;;;22.60;1.00;;;;;;5086552;28;20410;-67
2021/07/04 14:18:08;;;;;;;3.22;2.85;;;23.00;1.00;;;;;;5100937;28;20058;-67
2021/07/04 14:20:56;;;;;;;3.95;2.67;;;22.60;1.00;;;;;;5094527;28;20126;-68
2021/07/04 14:23:45;;;;;;;2.97;2.67;;;22.70;1.00;;;;;;5101876;27;20059;-67
2021/07/04 14:26:33;;;;;;;4.80;2.53;;;22.70;1.00;;;;;;5103437;27;20051;-66
2021/07/04 14:29:22;;;;;;;3.15;2.85;;;22.60;1.00;;;;;;5103330;28;20047;-67
2021/07/04 14:32:16;;;;;;;4.35;2.85;;;22.40;1.00;;;;;;5102652;28;20064;-68
2021/07/04 14:35:09;;;;;;;3.20;2.60;;;22.40;1.00;;;;;;5098661;28;20775;-69
2021/07/04 14:37:57;;;;;;;3.60;2.78;;;22.40;1.00;;;;;;5102111;28;20438;-67
2021/07/04 14:40:46;;;;;;;2.83;2.35;;;22.30;1.00;;;;;;5101797;28;20040;-66
2021/07/04 14:43:34;;;;;;;3.88;2.65;;;22.00;1.00;;;;;;5103891;28;20062;-67
2021/07/04 14:46:23;;;;;;;3.15;2.67;;;22.50;1.00;;;;;;5101971;28;20135;-66
2021/07/04 14:49:12;;;;;;;3.97;2.63;;;22.60;1.00;;;;;;5103571;28;20047;-65
2021/07/04 14:52:04;;;;;;;3.17;2.80;;;22.50;1.00;;;;;;5090971;28;20055;-66
2021/07/04 14:54:54;;;;;;;4.15;2.97;;;22.80;1.00;;;;;;5102232;28;20522;-66
2021/07/04 14:57:43;;;;;;;3.95;2.90;;;22.10;1.00;;;;;;5102893;28;20063;-67
2021/07/04 15:00:32;;;;;;;5.85;3.40;;;22.20;1.00;;;;;;5104043;28;20047;-66
2021/07/04 15:03:20;;;;;;;3.58;3.05;;;22.20;1.00;;;;;;5105674;28;20043;-67